createdAt,value
2023-03-10T00:00:23.763Z,-2.96
2023-03-10T00:02:50.829Z,-2.90
2023-03-10T00:05:19.139Z,-2.86
2023-03-10T00:07:46.766Z,-2.91
2023-03-10T00:10:14.558Z,-2.90
2023-03-10T00:12:41.616Z,-2.98
2023-03-10T00:15:09.067Z,-3.07
2023-03-10T00:17:36.438Z,-3.13
2023-03-10T00:20:08.237Z,-3.12
2023-03-10T00:22:35.612Z,-3.07
2023-03-10T00:25:02.549Z,-3.03
2023-03-10T00:27:29.996Z,-3.06
2023-03-10T00:29:56.981Z,-3.03
2023-03-10T00:32:23.948Z,-2.93
2023-03-10T00:34:50.857Z,-2.95
2023-03-10T00:37:19.574Z,-2.94
2023-03-10T00:39:50.827Z,-2.88
2023-03-10T00:42:18.012Z,-2.88
2023-03-10T00:44:46.257Z,-2.83
2023-03-10T00:47:13.361Z,-2.81
2023-03-10T00:49:40.358Z,-2.77
2023-03-10T00:52:07.273Z,-2.73
2023-03-10T00:54:34.223Z,-2.76
2023-03-10T00:57:01.838Z,-2.80
2023-03-10T00:59:32.881Z,-2.82
2023-03-10T01:02:07.616Z,-2.82
2023-03-10T01:04:34.712Z,-2.79
2023-03-10T01:07:02.573Z,-2.81
2023-03-10T01:09:29.610Z,-2.80
2023-03-10T01:11:56.623Z,-2.83
2023-03-10T01:14:23.609Z,-2.84
2023-03-10T01:16:50.745Z,-2.85
2023-03-10T01:19:18.572Z,-2.89
2023-03-10T01:21:45.780Z,-2.90
2023-03-10T01:24:16.066Z,-2.88
2023-03-10T01:26:43.326Z,-2.89
2023-03-10T01:29:10.323Z,-2.88
2023-03-10T01:31:37.388Z,-2.86
2023-03-10T01:34:04.453Z,-2.86
2023-03-10T01:36:31.443Z,-2.83
2023-03-10T01:38:58.567Z,-2.83
2023-03-10T01:41:25.731Z,-2.86
2023-03-10T01:43:54.233Z,-2.83
2023-03-10T01:46:36.408Z,-2.82
2023-03-10T01:49:13.319Z,-2.84
2023-03-10T01:51:41.403Z,-2.86
2023-03-10T01:54:11.212Z,-2.91
2023-03-10T01:56:38.161Z,-2.97
2023-03-10T01:59:05.183Z,-2.98
2023-03-10T02:01:32.194Z,-3.01
2023-03-10T02:04:14.710Z,-3.05
2023-03-10T02:06:42.483Z,-3.05
2023-03-10T02:09:09.494Z,-3.05
2023-03-10T02:11:36.809Z,-3.00
2023-03-10T02:14:04.787Z,-3.05
2023-03-10T02:16:32.036Z,-3.14
2023-03-10T02:18:59.105Z,-3.19
2023-03-10T02:21:33.426Z,-3.20
2023-03-10T02:24:15.259Z,-3.13
2023-03-10T02:27:09.249Z,-3.06
2023-03-10T02:29:59.221Z,-3.09
2023-03-10T02:32:33.378Z,-3.06
2023-03-10T02:35:01.192Z,-3.09
2023-03-10T02:37:30.659Z,-3.09
2023-03-10T02:39:58.225Z,-3.06
2023-03-10T02:42:29.470Z,-3.10
2023-03-10T02:44:56.557Z,-3.07
2023-03-10T02:47:23.646Z,-3.07
2023-03-10T02:49:51.112Z,-3.05
2023-03-10T02:52:44.558Z,-3.05
2023-03-10T02:55:16.072Z,-3.05
2023-03-10T02:57:43.809Z,-3.06
2023-03-10T03:00:12.378Z,-3.11
2023-03-10T03:02:39.977Z,-3.18
2023-03-10T03:05:07.516Z,-3.31
2023-03-10T03:07:34.755Z,-3.32
2023-03-10T03:10:03.070Z,-3.33
2023-03-10T03:12:30.443Z,-3.30
2023-03-10T03:14:57.557Z,-3.28
2023-03-10T03:17:24.608Z,-3.34
2023-03-10T03:19:51.903Z,-3.34
2023-03-10T03:22:21.906Z,-3.31
2023-03-10T03:24:49.249Z,-3.27
2023-03-10T03:27:16.326Z,-3.23
2023-03-10T03:29:44.711Z,-3.21
2023-03-10T03:32:12.017Z,-3.33
2023-03-10T03:34:39.116Z,-3.34
2023-03-10T03:37:07.339Z,-3.38
2023-03-10T03:39:37.981Z,-3.44
2023-03-10T03:42:07.815Z,-3.48
2023-03-10T03:44:43.562Z,-3.50
2023-03-10T03:47:11.320Z,-3.55
2023-03-10T03:49:39.086Z,-3.60
2023-03-10T03:52:06.994Z,-3.62
2023-03-10T03:54:34.051Z,-3.57
2023-03-10T03:57:01.112Z,-3.56
2023-03-10T03:59:28.148Z,-3.60
2023-03-10T04:01:55.822Z,-3.60
2023-03-10T04:04:23.702Z,-3.60
2023-03-10T04:06:50.924Z,-3.71
2023-03-10T04:09:18.319Z,-3.74
2023-03-10T04:11:45.453Z,-3.70
2023-03-10T04:14:12.426Z,-3.67
2023-03-10T04:16:39.666Z,-3.81
2023-03-10T04:19:07.816Z,-3.85
2023-03-10T04:21:38.334Z,-3.94
2023-03-10T04:24:06.304Z,-3.97
2023-03-10T04:26:33.393Z,-4.04
2023-03-10T04:29:00.584Z,-4.00
2023-03-10T04:31:30.485Z,-4.07
2023-03-10T04:33:59.421Z,-4.17
2023-03-10T04:36:26.362Z,-4.21
2023-03-10T04:38:56.412Z,-4.19
2023-03-10T04:41:28.588Z,-4.27
2023-03-10T04:43:55.625Z,-4.21
2023-03-10T04:46:23.004Z,-4.22
2023-03-10T04:48:50.527Z,-4.20
2023-03-10T04:51:17.559Z,-4.18
2023-03-10T04:53:50.799Z,-4.12
2023-03-10T04:56:18.266Z,-4.15
2023-03-10T04:58:45.498Z,-4.12
2023-03-10T05:01:13.618Z,-4.20
2023-03-10T05:03:45.757Z,-4.14
2023-03-10T05:06:20.962Z,-4.19
2023-03-10T05:09:01.089Z,-4.22
2023-03-10T05:11:29.273Z,-4.21
2023-03-10T05:13:56.466Z,-4.28
2023-03-10T05:16:23.965Z,-4.37
2023-03-10T05:18:52.895Z,-4.38
2023-03-10T05:21:24.351Z,-4.44
2023-03-10T05:23:53.707Z,-4.44
2023-03-10T05:26:21.805Z,-4.31
2023-03-10T05:28:48.744Z,-4.24
2023-03-10T05:31:26.330Z,-4.26
2023-03-10T05:33:59.249Z,-4.20
2023-03-10T05:36:26.462Z,-4.08
2023-03-10T05:38:53.715Z,-4.06
2023-03-10T05:41:20.759Z,-4.00
2023-03-10T05:43:50.838Z,-3.96
2023-03-10T05:46:18.761Z,-4.01
2023-03-10T05:48:51.225Z,-4.04
2023-03-10T05:51:18.310Z,-4.02
2023-03-10T05:53:46.933Z,-3.98
2023-03-10T05:56:19.443Z,-4.01
2023-03-10T05:58:53.168Z,-3.96
2023-03-10T06:01:24.733Z,-3.98
2023-03-10T06:03:51.784Z,-4.03
2023-03-10T06:06:18.836Z,-4.07
2023-03-10T06:08:46.024Z,-4.00
2023-03-10T06:11:13.094Z,-3.97
2023-03-10T06:13:40.130Z,-3.97
2023-03-10T06:16:07.810Z,-3.93
2023-03-10T06:18:34.913Z,-3.90
2023-03-10T06:21:06.979Z,-3.91
2023-03-10T06:23:34.115Z,-3.85
2023-03-10T06:26:06.956Z,-3.80
2023-03-10T06:28:36.809Z,-3.76
2023-03-10T06:31:17.859Z,-3.66
2023-03-10T06:33:45.054Z,-3.64
2023-03-10T06:36:12.548Z,-3.62
2023-03-10T06:38:39.674Z,-3.56
2023-03-10T06:41:06.797Z,-3.46
2023-03-10T06:43:34.000Z,-3.36
2023-03-10T06:46:03.261Z,-3.39
2023-03-10T06:48:30.365Z,-3.40
2023-03-10T06:50:57.423Z,-3.28
2023-03-10T06:53:24.599Z,-3.17
2023-03-10T06:56:01.913Z,-3.00
2023-03-10T06:58:29.208Z,-2.88
2023-03-10T07:00:56.571Z,-2.84
2023-03-10T07:03:26.419Z,-2.84
2023-03-10T07:05:53.368Z,-2.84
2023-03-10T07:08:20.468Z,-2.73
2023-03-10T07:10:47.391Z,-2.59
2023-03-10T07:13:15.780Z,-2.46
2023-03-10T07:15:43.198Z,-2.35
2023-03-10T07:18:10.348Z,-2.32
2023-03-10T07:20:40.344Z,-2.39
2023-03-10T07:23:07.310Z,-2.52
2023-03-10T07:25:37.684Z,-2.58
2023-03-10T07:28:04.955Z,-2.68
2023-03-10T07:30:32.569Z,-2.65
2023-03-10T07:32:59.633Z,-2.61
2023-03-10T07:35:26.552Z,-2.65
2023-03-10T07:37:53.539Z,-2.57
2023-03-10T07:40:24.990Z,-2.49
2023-03-10T07:42:54.615Z,-2.50
2023-03-10T07:45:22.734Z,-2.52
2023-03-10T07:47:53.104Z,-2.53
2023-03-10T07:50:20.308Z,-2.46
2023-03-10T07:52:47.759Z,-2.35
2023-03-10T07:55:14.863Z,-2.35
2023-03-10T07:57:41.835Z,-2.22
2023-03-10T08:00:09.584Z,-2.11
2023-03-10T08:02:41.080Z,-2.06
2023-03-10T08:05:08.872Z,-2.01
2023-03-10T08:07:36.077Z,-2.19
2023-03-10T08:10:03.433Z,-2.24
2023-03-10T08:12:30.551Z,-2.43
2023-03-10T08:14:57.462Z,-2.32
2023-03-10T08:17:30.705Z,-2.33
2023-03-10T08:19:58.539Z,-2.43
2023-03-10T08:22:25.905Z,-2.50
2023-03-10T08:24:53.021Z,-2.45
2023-03-10T08:27:20.044Z,-2.57
2023-03-10T08:29:46.939Z,-2.60
2023-03-10T08:32:13.879Z,-2.60
2023-03-10T08:34:41.800Z,-2.52
2023-03-10T08:37:09.401Z,-2.42
2023-03-10T08:39:36.434Z,-2.27
2023-03-10T08:42:03.496Z,-2.29
2023-03-10T08:44:30.488Z,-2.28
2023-03-10T08:46:57.678Z,-2.33
2023-03-10T08:49:24.768Z,-2.28
2023-03-10T08:51:51.844Z,-2.24
2023-03-10T08:54:19.793Z,-2.22
2023-03-10T08:56:46.849Z,-2.24
2023-03-10T08:59:13.876Z,-2.16
2023-03-10T09:01:41.050Z,-2.14
2023-03-10T09:04:08.467Z,-2.19
2023-03-10T09:06:35.724Z,-2.33
2023-03-10T09:09:03.480Z,-2.38
2023-03-10T09:11:34.270Z,-2.27
2023-03-10T09:14:01.479Z,-2.21
2023-03-10T09:16:28.920Z,-2.16
2023-03-10T09:18:57.040Z,-2.19
2023-03-10T09:21:24.183Z,-2.11
2023-03-10T09:23:53.013Z,-1.96
2023-03-10T09:26:20.428Z,-1.84
2023-03-10T09:28:49.502Z,-2.00
2023-03-10T09:31:18.565Z,-2.21
2023-03-10T09:33:48.126Z,-2.34
2023-03-10T09:36:16.493Z,-2.47
2023-03-10T09:38:43.668Z,-2.76
2023-03-10T09:41:16.666Z,-2.79
2023-03-10T09:43:50.575Z,-2.65
2023-03-10T09:46:35.020Z,-2.59
2023-03-10T09:49:26.961Z,-2.65
2023-03-10T09:51:54.016Z,-2.74
2023-03-10T09:54:42.373Z,-2.73
2023-03-10T09:57:17.021Z,-2.68
2023-03-10T09:59:44.346Z,-2.86
2023-03-10T10:02:35.520Z,-2.83
2023-03-10T10:05:26.089Z,-2.83
2023-03-10T10:07:57.285Z,-2.89
2023-03-10T10:10:25.300Z,-2.86
2023-03-10T10:12:52.837Z,-2.88
2023-03-10T10:15:23.835Z,-3.13
2023-03-10T10:18:21.487Z,-3.26
2023-03-10T10:21:14.020Z,-3.31
2023-03-10T10:23:47.414Z,-3.22
2023-03-10T10:26:24.849Z,-3.07
2023-03-10T10:28:58.066Z,-3.02
2023-03-10T10:31:27.475Z,-3.23
2023-03-10T10:34:04.597Z,-3.37
2023-03-10T10:36:35.754Z,-3.35
2023-03-10T10:39:04.099Z,-3.38
2023-03-10T10:41:32.523Z,-3.31
2023-03-10T10:44:09.670Z,-3.09
2023-03-10T10:46:36.748Z,-3.11
2023-03-10T10:49:05.932Z,-3.14
2023-03-10T10:51:37.661Z,-3.17
2023-03-10T10:54:19.636Z,-3.00
2023-03-10T10:56:53.828Z,-2.87
2023-03-10T10:59:31.497Z,-2.79
2023-03-10T11:02:01.363Z,-2.73
2023-03-10T11:04:30.421Z,-2.72
2023-03-10T11:07:24.123Z,-2.78
2023-03-10T11:09:51.076Z,-2.67
2023-03-10T11:12:34.243Z,-2.51
2023-03-10T11:15:20.221Z,-2.45
2023-03-10T11:17:57.546Z,-2.56
2023-03-10T11:20:42.037Z,-2.67
2023-03-10T11:23:31.025Z,-2.65
2023-03-10T11:26:11.657Z,-2.82
2023-03-10T11:28:56.924Z,-2.84
2023-03-10T11:31:42.777Z,-2.97
2023-03-10T11:34:15.568Z,-3.09
2023-03-10T11:37:06.220Z,-2.81
2023-03-10T11:39:44.368Z,-2.58
2023-03-10T11:42:16.649Z,-2.59
2023-03-10T11:44:52.698Z,-2.59
2023-03-10T11:47:50.734Z,-2.85
2023-03-10T11:50:41.045Z,-3.05
2023-03-10T11:53:17.484Z,-2.94
2023-03-10T11:55:44.464Z,-2.80
2023-03-10T11:58:40.016Z,-2.78
2023-03-10T12:01:08.087Z,-2.82
2023-03-10T12:03:42.751Z,-2.78
2023-03-10T12:06:13.381Z,-2.67
2023-03-10T12:08:40.427Z,-2.63
2023-03-10T12:11:12.734Z,-2.68
2023-03-10T12:13:48.222Z,-2.75
2023-03-10T12:16:24.706Z,-2.72
2023-03-10T12:18:51.808Z,-2.74
2023-03-10T12:21:26.913Z,-2.71
2023-03-10T12:23:55.744Z,-2.67
2023-03-10T12:26:38.078Z,-2.59
2023-03-10T12:29:20.056Z,-2.56
2023-03-10T12:31:48.712Z,-2.72
2023-03-10T12:34:23.141Z,-2.74
2023-03-10T12:37:11.038Z,-2.74
2023-03-10T12:39:40.170Z,-2.70
2023-03-10T12:42:28.677Z,-2.70
2023-03-10T12:45:11.861Z,-2.69
2023-03-10T12:47:50.937Z,-2.91
2023-03-10T12:50:36.314Z,-3.00
2023-03-10T12:53:07.364Z,-3.09
2023-03-10T12:55:34.501Z,-3.11
2023-03-10T12:58:10.247Z,-3.09
2023-03-10T13:00:49.327Z,-3.03
2023-03-10T13:03:18.712Z,-3.01
2023-03-10T13:06:14.632Z,-3.02
2023-03-10T13:09:14.689Z,-3.12
2023-03-10T13:11:49.821Z,-3.20
2023-03-10T13:14:21.813Z,-3.30
2023-03-10T13:16:55.997Z,-3.37
2023-03-10T13:19:24.248Z,-3.32
2023-03-10T13:21:51.429Z,-3.27
2023-03-10T13:24:25.550Z,-3.24
2023-03-10T13:27:25.156Z,-3.19
2023-03-10T13:29:59.558Z,-3.22
2023-03-10T13:32:26.832Z,-3.26
2023-03-10T13:34:53.995Z,-3.36
2023-03-10T13:37:20.974Z,-3.42
2023-03-10T13:39:47.936Z,-3.36
2023-03-10T13:42:37.206Z,-3.27
2023-03-10T13:45:15.396Z,-3.37
2023-03-10T13:47:42.448Z,-3.36
2023-03-10T13:50:12.302Z,-3.41
2023-03-10T13:52:39.813Z,-3.65
2023-03-10T13:55:16.357Z,-3.66
2023-03-10T13:57:43.505Z,-3.63
2023-03-10T14:00:16.194Z,-3.54
2023-03-10T14:02:45.111Z,-3.47
2023-03-10T14:05:46.741Z,-3.66
2023-03-10T14:08:28.660Z,-3.93
2023-03-10T14:11:34.134Z,-4.09
2023-03-10T14:14:01.526Z,-4.16
2023-03-10T14:16:48.164Z,-4.28
2023-03-10T14:19:35.160Z,-4.23
2023-03-10T14:22:02.536Z,-4.18
2023-03-10T14:24:29.861Z,-4.19
2023-03-10T14:26:59.962Z,-4.04
2023-03-10T14:29:26.998Z,-3.88
2023-03-10T14:31:54.016Z,-3.70
2023-03-10T14:34:21.237Z,-3.57
2023-03-10T14:36:48.205Z,-3.58
2023-03-10T14:39:15.279Z,-3.50
2023-03-10T14:41:42.375Z,-3.44
2023-03-10T14:44:09.487Z,-3.37
2023-03-10T14:46:36.581Z,-3.35
2023-03-10T14:49:05.839Z,-3.33
2023-03-10T14:51:35.907Z,-3.43
2023-03-10T14:54:03.978Z,-3.51
2023-03-10T14:56:31.066Z,-3.51
2023-03-10T14:59:02.147Z,-3.51
2023-03-10T15:01:29.532Z,-3.53
2023-03-10T15:03:56.634Z,-3.54
2023-03-10T15:06:23.532Z,-3.57
2023-03-10T15:08:50.543Z,-3.54
2023-03-10T15:11:24.033Z,-3.47
2023-03-10T15:13:57.684Z,-3.44
2023-03-10T15:16:24.669Z,-3.38
2023-03-10T15:18:53.272Z,-3.34
2023-03-10T15:21:20.380Z,-3.32
2023-03-10T15:23:47.377Z,-3.27
2023-03-10T15:26:14.371Z,-3.20
2023-03-10T15:28:41.423Z,-3.15
2023-03-10T15:31:08.399Z,-3.21
2023-03-10T15:33:35.554Z,-3.39
2023-03-10T15:36:02.671Z,-3.52
2023-03-10T15:38:29.741Z,-3.72
2023-03-10T15:40:57.321Z,-3.87
2023-03-10T15:43:24.245Z,-3.88
2023-03-10T15:45:51.424Z,-3.94
2023-03-10T15:48:18.561Z,-3.89
2023-03-10T15:50:47.178Z,-3.91
2023-03-10T15:53:14.170Z,-3.95
2023-03-10T15:55:41.614Z,-3.90
2023-03-10T15:58:09.772Z,-3.77
2023-03-10T16:00:36.674Z,-3.72
2023-03-10T16:03:03.676Z,-3.61
2023-03-10T16:05:30.687Z,-3.51
2023-03-10T16:07:57.708Z,-3.47
2023-03-10T16:10:24.740Z,-3.64
2023-03-10T16:12:52.079Z,-3.65
2023-03-10T16:15:19.079Z,-3.72
2023-03-10T16:17:46.142Z,-3.75
2023-03-10T16:20:14.027Z,-3.81
2023-03-10T16:22:41.742Z,-3.88
2023-03-10T16:25:13.555Z,-3.88
2023-03-10T16:27:40.584Z,-3.97
2023-03-10T16:30:09.400Z,-4.13
2023-03-10T16:32:36.690Z,-4.29
2023-03-10T16:35:03.926Z,-4.25
2023-03-10T16:37:30.994Z,-4.31
2023-03-10T16:39:58.013Z,-4.24
2023-03-10T16:42:26.425Z,-4.36
2023-03-10T16:44:56.820Z,-4.36
2023-03-10T16:47:25.125Z,-4.30
2023-03-10T16:50:35.623Z,-4.29
2023-03-10T16:53:02.585Z,-4.38
2023-03-10T16:55:29.759Z,-4.32
2023-03-10T16:57:56.749Z,-4.20
2023-03-10T17:00:23.934Z,-4.17
2023-03-10T17:02:51.024Z,-4.16
2023-03-10T17:05:18.091Z,-4.21
2023-03-10T17:07:55.149Z,-4.39
2023-03-10T17:10:23.203Z,-4.58
2023-03-10T17:12:50.230Z,-4.70
2023-03-10T17:15:17.334Z,-4.85
2023-03-10T17:17:44.394Z,-4.98
2023-03-10T17:20:12.228Z,-4.92
2023-03-10T17:22:39.341Z,-4.85
2023-03-10T17:25:06.656Z,-4.96
2023-03-10T17:27:33.669Z,-5.37
2023-03-10T17:30:00.774Z,-5.51
2023-03-10T17:32:28.401Z,-5.72
2023-03-10T17:34:55.505Z,-5.87
2023-03-10T17:37:22.505Z,-5.99
2023-03-10T17:39:49.603Z,-6.34
2023-03-10T17:42:17.065Z,-6.59
2023-03-10T17:44:44.223Z,-6.78
2023-03-10T17:47:12.343Z,-6.99
2023-03-10T17:49:40.628Z,-7.14
2023-03-10T17:52:07.630Z,-7.08
2023-03-10T17:54:34.625Z,-7.06
2023-03-10T17:57:01.766Z,-7.15
2023-03-10T17:59:28.859Z,-7.18
2023-03-10T18:01:55.875Z,-7.07
2023-03-10T18:04:22.965Z,-6.82
2023-03-10T18:06:49.992Z,-6.82
2023-03-10T18:09:17.056Z,-7.00
2023-03-10T18:11:44.041Z,-7.23
2023-03-10T18:14:11.231Z,-7.39
2023-03-10T18:16:39.501Z,-7.67
2023-03-10T18:19:09.957Z,-7.76
2023-03-10T18:21:37.992Z,-7.83
2023-03-10T18:24:05.236Z,-7.79
2023-03-10T18:26:32.487Z,-7.49
2023-03-10T18:28:59.781Z,-7.34
2023-03-10T18:31:28.449Z,-7.21
2023-03-10T18:33:55.434Z,-7.13
2023-03-10T18:36:24.232Z,-7.15
2023-03-10T18:38:51.488Z,-7.16
2023-03-10T18:41:19.417Z,-7.08
2023-03-10T18:43:46.452Z,-7.04
2023-03-10T18:46:13.576Z,-7.06
2023-03-10T18:48:40.747Z,-7.03
2023-03-10T18:51:07.786Z,-7.05
2023-03-10T18:53:34.790Z,-7.07
2023-03-10T18:56:01.854Z,-7.07
2023-03-10T18:58:29.978Z,-7.23
2023-03-10T19:00:57.149Z,-7.28
2023-03-10T19:03:24.091Z,-7.49
2023-03-10T19:05:54.537Z,-7.43
2023-03-10T19:08:25.734Z,-7.34
2023-03-10T19:10:59.419Z,-7.34
2023-03-10T19:13:27.297Z,-7.38
2023-03-10T19:15:54.394Z,-7.25
2023-03-10T19:18:21.339Z,-7.21
2023-03-10T19:20:48.495Z,-7.07
2023-03-10T19:23:15.452Z,-7.13
2023-03-10T19:25:42.608Z,-7.19
2023-03-10T19:28:09.760Z,-7.05
2023-03-10T19:30:36.888Z,-6.87
2023-03-10T19:33:03.945Z,-6.78
2023-03-10T19:35:31.097Z,-6.88
2023-03-10T19:37:58.115Z,-6.79
2023-03-10T19:40:25.148Z,-6.77
2023-03-10T19:42:52.177Z,-6.85
2023-03-10T19:45:19.495Z,-6.95
2023-03-10T19:47:46.490Z,-7.05
2023-03-10T19:50:15.696Z,-6.95
2023-03-10T19:52:46.750Z,-6.72
2023-03-10T19:55:17.869Z,-6.48
2023-03-10T19:57:48.772Z,-6.40
2023-03-10T20:00:18.806Z,-6.40
2023-03-10T20:02:46.059Z,-6.37
2023-03-10T20:05:16.610Z,-6.37
2023-03-10T20:07:46.859Z,-6.38
2023-03-10T20:10:15.212Z,-6.48
2023-03-10T20:12:42.380Z,-6.52
2023-03-10T20:15:09.793Z,-6.42
2023-03-10T20:17:36.692Z,-6.34
2023-03-10T20:20:10.483Z,-6.28
2023-03-10T20:22:38.976Z,-6.13
2023-03-10T20:25:06.942Z,-6.08
2023-03-10T20:27:34.144Z,-6.17
2023-03-10T20:30:01.141Z,-6.33
2023-03-10T20:32:29.330Z,-6.23
2023-03-10T20:34:56.384Z,-6.18
2023-03-10T20:37:23.390Z,-6.26
2023-03-10T20:39:50.307Z,-6.30
2023-03-10T20:42:17.442Z,-6.33
2023-03-10T20:44:44.711Z,-6.32
2023-03-10T20:47:11.771Z,-6.38
2023-03-10T20:49:38.706Z,-6.44
2023-03-10T20:52:05.661Z,-6.52
2023-03-10T20:54:32.696Z,-6.46
2023-03-10T20:56:59.773Z,-6.46
2023-03-10T20:59:26.766Z,-6.51
2023-03-10T21:01:53.977Z,-6.59
2023-03-10T21:04:21.100Z,-6.66
2023-03-10T21:06:48.147Z,-6.55
2023-03-10T21:09:15.236Z,-6.23
2023-03-10T21:11:42.394Z,-6.09
2023-03-10T21:14:09.553Z,-6.10
2023-03-10T21:16:38.951Z,-6.24
2023-03-10T21:19:05.987Z,-6.29
2023-03-10T21:21:34.648Z,-6.34
2023-03-10T21:24:02.348Z,-6.33
2023-03-10T21:26:29.393Z,-6.29
2023-03-10T21:28:56.748Z,-6.22
2023-03-10T21:31:23.938Z,-6.16
2023-03-10T21:33:50.995Z,-6.04
2023-03-10T21:36:20.624Z,-5.84
2023-03-10T21:38:48.958Z,-5.78
2023-03-10T21:41:17.180Z,-6.01
2023-03-10T21:43:44.348Z,-6.07
2023-03-10T21:46:11.519Z,-6.22
2023-03-10T21:48:38.553Z,-6.18
2023-03-10T21:51:05.825Z,-5.94
2023-03-10T21:53:32.925Z,-5.74
2023-03-10T21:56:00.845Z,-5.93
2023-03-10T21:58:27.954Z,-6.22
2023-03-10T22:00:56.260Z,-6.41
2023-03-10T22:03:23.459Z,-6.52
2023-03-10T22:05:50.582Z,-6.59
2023-03-10T22:08:17.580Z,-6.63
2023-03-10T22:10:45.638Z,-6.66
2023-03-10T22:13:12.700Z,-6.77
2023-03-10T22:15:39.885Z,-6.94
2023-03-10T22:18:06.941Z,-7.13
2023-03-10T22:20:34.012Z,-7.23
2023-03-10T22:23:01.096Z,-7.25
2023-03-10T22:25:28.130Z,-7.17
2023-03-10T22:27:55.857Z,-7.11
2023-03-10T22:30:24.133Z,-7.03
2023-03-10T22:32:51.187Z,-7.01
2023-03-10T22:35:18.412Z,-6.99
2023-03-10T22:37:45.553Z,-6.90
2023-03-10T22:40:14.272Z,-6.79
2023-03-10T22:42:41.377Z,-6.66
2023-03-10T22:45:20.587Z,-6.75
2023-03-10T22:47:47.784Z,-6.59
2023-03-10T22:50:17.289Z,-6.54
2023-03-10T22:52:44.391Z,-6.60
2023-03-10T22:55:15.756Z,-6.79
2023-03-10T22:57:42.895Z,-6.98
2023-03-10T23:00:14.158Z,-7.03
2023-03-10T23:02:41.647Z,-7.02
2023-03-10T23:05:10.089Z,-6.94
2023-03-10T23:07:37.073Z,-6.89
2023-03-10T23:10:08.459Z,-6.98
2023-03-10T23:12:35.494Z,-7.10
2023-03-10T23:15:07.034Z,-7.21
2023-03-10T23:17:36.373Z,-7.24
2023-03-10T23:20:03.386Z,-7.30
2023-03-10T23:22:30.460Z,-7.35
2023-03-10T23:24:57.449Z,-7.33
2023-03-10T23:27:24.461Z,-7.10
2023-03-10T23:29:51.504Z,-7.12
2023-03-10T23:32:18.509Z,-7.23
2023-03-10T23:34:45.496Z,-7.31
2023-03-10T23:37:12.465Z,-7.34
2023-03-10T23:39:39.467Z,-7.36
2023-03-10T23:42:07.840Z,-7.38
2023-03-10T23:44:34.859Z,-7.36
2023-03-10T23:47:01.857Z,-7.35
2023-03-10T23:49:28.736Z,-7.41
2023-03-10T23:51:56.484Z,-7.45
2023-03-10T23:54:24.415Z,-7.41
2023-03-10T23:56:51.448Z,-7.29
2023-03-10T23:59:18.510Z,-7.36
